Time;durP1;ratioP1;P1;durP2;ratioP2;P2;SDS_P1;SDS_P2;PMS_P1;PMS_P2;Temp;Humidity;BMP_temperature;BMP_pressure;BME280_temperature;BME280_humidity;BME280_pressure;Samples;Min_cycle;Max_cycle;Signal;HPM_P1;HPM_P2
2022/03/30 00:00:50;;;;;;;31.83;21.43;;;10.20;98.70;;;;;;5013351;28;20640;-68
2022/03/30 00:03:16;;;;;;;29.23;20.17;;;10.20;98.60;;;;;;5011898;28;20686;-68
2022/03/30 00:05:41;;;;;;;26.50;20.23;;;10.10;98.70;;;;;;5013567;28;20553;-67
2022/03/30 00:08:07;;;;;;;33.17;21.63;;;10.10;98.80;;;;;;5013441;28;20198;-67
2022/03/30 00:10:34;;;;;;;34.20;23.43;;;10.00;98.80;;;;;;5013265;28;20269;-67
2022/03/30 00:13:00;;;;;;;30.80;21.33;;;10.00;99.00;;;;;;5011502;28;20515;-68
2022/03/30 00:15:26;;;;;;;31.80;21.17;;;10.00;99.10;;;;;;5013150;28;20413;-67
2022/03/30 00:17:51;;;;;;;29.13;20.93;;;10.10;99.10;;;;;;5013596;28;20417;-67
2022/03/30 00:20:18;;;;;;;31.33;21.50;;;10.20;98.90;;;;;;5012943;28;20445;-68
2022/03/30 00:22:43;;;;;;;31.37;21.63;;;10.20;98.80;;;;;;5012267;28;20258;-65
2022/03/30 00:25:11;;;;;;;32.83;21.67;;;10.20;98.60;;;;;;4993241;28;20554;-68
2022/03/30 00:27:38;;;;;;;29.80;21.07;;;10.10;98.60;;;;;;4993371;28;20175;-68
2022/03/30 00:30:05;;;;;;;34.83;22.00;;;10.10;98.90;;;;;;4993220;28;20407;-68
2022/03/30 00:32:32;;;;;;;31.10;21.67;;;10.00;99.20;;;;;;4992069;28;20419;-68
2022/03/30 00:34:58;;;;;;;29.73;20.77;;;9.90;99.80;;;;;;4994428;28;20447;-68
2022/03/30 00:37:23;;;;;;;33.10;21.37;;;9.80;99.90;;;;;;4992702;28;20433;-68
2022/03/30 00:39:49;;;;;;;31.23;21.80;;;9.90;99.90;;;;;;4992869;28;20583;-69
2022/03/30 00:42:16;;;;;;;31.27;23.90;;;9.80;99.90;;;;;;4992637;28;20411;-67
2022/03/30 00:44:42;;;;;;;30.97;22.17;;;9.80;99.90;;;;;;4993154;28;20570;-68
2022/03/30 00:47:16;;;;;;;31.67;20.77;;;9.90;99.90;;;;;;4992870;28;20481;-69
2022/03/30 00:49:42;;;;;;;33.20;22.97;;;9.90;99.90;;;;;;4992889;28;20470;-68
2022/03/30 00:52:08;;;;;;;29.17;22.70;;;9.90;99.90;;;;;;4992727;28;20418;-68
2022/03/30 00:54:34;;;;;;;32.90;22.20;;;10.00;99.40;;;;;;4992909;28;20438;-69
2022/03/30 00:57:00;;;;;;;39.87;22.60;;;10.00;99.20;;;;;;4993104;28;20430;-68
2022/03/30 00:59:27;;;;;;;35.33;21.67;;;10.00;99.10;;;;;;4993645;28;20592;-69
2022/03/30 01:01:52;;;;;;;34.17;21.53;;;9.90;99.80;;;;;;4993118;28;20774;-69
2022/03/30 01:04:18;;;;;;;43.57;22.03;;;9.90;99.90;;;;;;4992451;28;20450;-69
2022/03/30 01:06:43;;;;;;;32.17;21.97;;;10.00;99.40;;;;;;4992664;28;20180;-69
2022/03/30 01:09:09;;;;;;;30.87;21.77;;;10.00;99.30;;;;;;4992313;28;20250;-69
2022/03/30 01:11:34;;;;;;;32.27;21.47;;;10.10;99.30;;;;;;4993092;28;20179;-70
2022/03/30 01:14:00;;;;;;;29.47;21.93;;;10.10;99.00;;;;;;4992504;28;20210;-69
2022/03/30 01:16:28;;;;;;;34.83;22.20;;;10.00;99.20;;;;;;4992778;28;20183;-68
2022/03/30 01:19:08;;;;;;;36.77;22.20;;;10.00;99.30;;;;;;4992522;28;20174;-68
2022/03/30 01:21:38;;;;;;;30.20;20.87;;;9.80;99.90;;;;;;4992392;28;20839;-67
2022/03/30 01:24:05;;;;;;;31.00;20.07;;;9.80;99.90;;;;;;4992678;28;20482;-66
2022/03/30 01:26:30;;;;;;;30.23;20.37;;;9.80;99.90;;;;;;4992505;28;20421;-68
2022/03/30 01:28:56;;;;;;;33.20;22.77;;;9.90;99.90;;;;;;4992700;28;20410;-68
2022/03/30 01:34:07;;;;;;;36.20;22.60;;;9.90;99.90;;;;;;4993125;28;20211;-67
2022/03/30 01:36:35;;;;;;;34.70;22.00;;;9.90;99.90;;;;;;4992287;28;20491;-69
2022/03/30 01:39:04;;;;;;;29.37;21.67;;;9.90;99.90;;;;;;4992370;28;20407;-68
2022/03/30 01:41:30;;;;;;;34.97;22.63;;;10.00;99.50;;;;;;4993116;28;20461;-68
2022/03/30 01:43:56;;;;;;;34.53;21.80;;;9.90;99.90;;;;;;4992144;28;20496;-68
2022/03/30 01:46:22;;;;;;;33.23;20.87;;;9.70;99.90;;;;;;4992706;28;20170;-70
2022/03/30 01:48:49;;;;;;;33.80;22.43;;;9.60;99.90;;;;;;4992583;28;20770;-68
2022/03/30 01:51:14;;;;;;;33.27;21.07;;;9.50;99.90;;;;;;4993459;28;20826;-69
2022/03/30 01:53:40;;;;;;;32.33;21.40;;;9.30;99.90;;;;;;4992835;28;20427;-68
2022/03/30 01:56:06;;;;;;;32.00;21.87;;;9.30;99.90;;;;;;5000532;28;20169;-66
2022/03/30 01:58:32;;;;;;;37.90;21.43;;;9.20;99.90;;;;;;5016747;28;20437;-64
2022/03/30 02:00:57;;;;;;;35.97;22.27;;;9.20;99.90;;;;;;5017123;28;20228;-65
2022/03/30 02:03:24;;;;;;;34.80;22.60;;;9.20;99.90;;;;;;5018726;28;20204;-66
2022/03/30 02:05:50;;;;;;;33.83;21.87;;;9.20;99.90;;;;;;5022210;28;20168;-64
2022/03/30 02:08:15;;;;;;;31.03;22.40;;;9.30;99.90;;;;;;5005834;28;20431;-68
2022/03/30 02:10:41;;;;;;;34.20;22.27;;;9.30;99.90;;;;;;4997144;28;20180;-69
2022/03/30 02:13:06;;;;;;;31.07;21.57;;;9.40;99.90;;;;;;5004988;28;20219;-69
2022/03/30 02:15:32;;;;;;;32.07;21.80;;;9.40;99.90;;;;;;5016329;28;20168;-68
2022/03/30 02:17:59;;;;;;;32.23;21.30;;;9.30;99.90;;;;;;5016179;28;20177;-68
2022/03/30 02:20:25;;;;;;;33.10;22.20;;;9.40;99.90;;;;;;5020355;28;20175;-68
2022/03/30 02:22:50;;;;;;;30.63;22.87;;;9.40;99.90;;;;;;5022308;28;20422;-69
2022/03/30 02:25:16;;;;;;;30.53;22.00;;;9.30;99.90;;;;;;5004167;28;20495;-68
2022/03/30 02:27:42;;;;;;;30.43;21.13;;;9.30;99.90;;;;;;5004029;28;20183;-69
2022/03/30 02:30:08;;;;;;;32.90;22.90;;;9.20;99.90;;;;;;5003394;28;20236;-68
2022/03/30 02:32:36;;;;;;;35.50;23.47;;;9.10;99.90;;;;;;5002284;28;20419;-68
2022/03/30 02:35:03;;;;;;;32.80;22.37;;;9.10;99.90;;;;;;5007582;28;20449;-69
2022/03/30 02:37:28;;;;;;;30.53;22.57;;;9.00;99.90;;;;;;5004646;28;20434;-67
2022/03/30 02:39:54;;;;;;;34.00;22.37;;;8.90;99.90;;;;;;4995278;28;20786;-68
2022/03/30 02:42:19;;;;;;;32.17;22.60;;;9.00;99.90;;;;;;4995846;28;20177;-69
2022/03/30 02:44:45;;;;;;;35.57;21.67;;;9.10;99.90;;;;;;4995257;28;20205;-70
2022/03/30 02:47:11;;;;;;;34.27;21.67;;;9.00;99.90;;;;;;4995887;28;20192;-70
2022/03/30 02:49:38;;;;;;;36.20;23.43;;;8.90;99.90;;;;;;4995464;28;20431;-69
2022/03/30 02:52:04;;;;;;;37.70;23.20;;;9.00;99.90;;;;;;4995932;28;20657;-70
2022/03/30 02:54:30;;;;;;;36.33;22.50;;;9.00;99.90;;;;;;4996383;28;20518;-68
2022/03/30 02:56:56;;;;;;;34.00;22.73;;;8.90;99.90;;;;;;4998733;28;20444;-68
2022/03/30 02:59:22;;;;;;;34.60;23.87;;;8.80;99.90;;;;;;4999931;28;20186;-68
2022/03/30 03:01:48;;;;;;;32.47;22.73;;;8.70;99.90;;;;;;5017344;28;20407;-68
2022/03/30 03:04:14;;;;;;;34.47;23.30;;;8.70;99.90;;;;;;5017226;28;20470;-69
2022/03/30 03:06:40;;;;;;;36.90;22.70;;;8.80;99.90;;;;;;5018427;28;20789;-68
2022/03/30 03:09:06;;;;;;;32.80;21.57;;;8.90;99.90;;;;;;5023372;28;20473;-65
2022/03/30 03:11:32;;;;;;;35.67;21.50;;;8.90;99.90;;;;;;5032495;28;20180;-68
2022/03/30 03:13:57;;;;;;;32.47;22.40;;;8.90;99.90;;;;;;5015201;28;20934;-67
2022/03/30 03:16:23;;;;;;;33.20;21.90;;;8.90;99.90;;;;;;5015264;28;20547;-68
2022/03/30 03:18:48;;;;;;;33.50;22.20;;;9.00;99.90;;;;;;5013684;28;20176;-67
2022/03/30 03:21:14;;;;;;;33.40;22.50;;;9.00;99.90;;;;;;5013747;28;20184;-67
2022/03/30 03:23:41;;;;;;;36.80;22.77;;;9.00;99.90;;;;;;5014470;28;20626;-68
2022/03/30 03:26:07;;;;;;;30.43;20.70;;;9.00;99.90;;;;;;5014331;28;20177;-68
2022/03/30 03:28:32;;;;;;;31.60;20.93;;;9.00;99.90;;;;;;5014248;28;20438;-67
2022/03/30 03:30:58;;;;;;;35.87;23.77;;;8.90;99.90;;;;;;5012479;28;20907;-68
2022/03/30 03:33:23;;;;;;;35.57;22.27;;;8.90;99.90;;;;;;5014038;28;20195;-67
2022/03/30 03:35:49;;;;;;;31.63;21.67;;;8.80;99.90;;;;;;5013635;28;20172;-68
2022/03/30 03:38:15;;;;;;;31.67;22.53;;;8.80;99.90;;;;;;5014135;28;20221;-68
2022/03/30 03:40:40;;;;;;;32.73;22.20;;;8.70;99.90;;;;;;5012569;28;20183;-69
2022/03/30 03:43:06;;;;;;;37.60;23.17;;;8.70;99.90;;;;;;5012148;28;20204;-69
2022/03/30 03:45:32;;;;;;;36.13;23.70;;;8.60;99.90;;;;;;5013776;28;20219;-69
2022/03/30 03:47:58;;;;;;;36.63;22.17;;;8.70;99.90;;;;;;5014003;28;20501;-69
2022/03/30 03:50:26;;;;;;;37.60;23.77;;;8.70;99.90;;;;;;5013591;28;20497;-69
2022/03/30 03:52:52;;;;;;;37.50;23.97;;;8.70;99.90;;;;;;5010135;28;20911;-69
2022/03/30 03:55:17;;;;;;;34.70;22.97;;;8.70;99.90;;;;;;4993670;28;20430;-69
2022/03/30 03:57:43;;;;;;;32.20;22.37;;;8.60;99.90;;;;;;4995412;28;20652;-69
2022/03/30 04:00:11;;;;;;;33.43;21.30;;;8.40;99.90;;;;;;4992724;28;20187;-68
2022/03/30 04:02:36;;;;;;;37.40;23.47;;;8.20;99.90;;;;;;4993704;28;20618;-69
2022/03/30 04:05:02;;;;;;;42.13;23.50;;;8.20;99.90;;;;;;4993827;28;20477;-67
2022/03/30 04:07:28;;;;;;;34.07;22.03;;;8.10;99.90;;;;;;4994155;28;20186;-68
2022/03/30 04:09:54;;;;;;;44.00;22.87;;;7.90;99.90;;;;;;4993597;28;20858;-68
2022/03/30 04:12:19;;;;;;;36.03;25.70;;;7.80;99.90;;;;;;4994830;28;20230;-68
2022/03/30 04:14:45;;;;;;;37.00;24.00;;;7.80;99.90;;;;;;5041739;22;20230;-67
2022/03/30 04:17:11;;;;;;;34.57;22.53;;;8.00;99.90;;;;;;5042173;28;20206;-67
2022/03/30 04:19:37;;;;;;;33.40;23.10;;;8.00;99.90;;;;;;5015953;28;20171;-67
2022/03/30 04:22:03;;;;;;;36.50;22.93;;;8.10;99.90;;;;;;5035958;28;20401;-67
2022/03/30 04:24:29;;;;;;;38.23;23.87;;;8.00;99.90;;;;;;5048722;28;20825;-68
2022/03/30 04:26:54;;;;;;;39.30;23.57;;;8.10;99.90;;;;;;5052900;28;20401;-67
2022/03/30 04:29:20;;;;;;;36.10;21.67;;;8.20;99.90;;;;;;5053082;28;20245;-67
2022/03/30 04:31:45;;;;;;;36.17;21.23;;;8.30;99.90;;;;;;5053246;28;20665;-67
2022/03/30 04:34:11;;;;;;;33.37;22.80;;;8.30;99.90;;;;;;5051365;28;20204;-68
2022/03/30 04:36:36;;;;;;;39.60;22.50;;;8.20;99.90;;;;;;5049786;28;20190;-67
2022/03/30 04:39:03;;;;;;;38.97;23.07;;;8.10;99.90;;;;;;5032920;28;20209;-67
2022/03/30 04:41:29;;;;;;;32.47;20.60;;;7.90;99.90;;;;;;5034529;28;20253;-67
2022/03/30 04:43:55;;;;;;;34.70;22.27;;;7.90;99.90;;;;;;5033829;28;20621;-69
2022/03/30 04:46:20;;;;;;;41.47;22.07;;;8.00;99.90;;;;;;5033292;28;20410;-68
2022/03/30 04:48:46;;;;;;;33.67;21.30;;;8.00;99.90;;;;;;5034717;28;20186;-67
2022/03/30 04:51:11;;;;;;;28.10;19.17;;;7.90;99.90;;;;;;5014984;28;20183;-69
2022/03/30 04:53:37;;;;;;;35.07;19.93;;;7.80;99.90;;;;;;5033310;28;20182;-67
2022/03/30 04:56:03;;;;;;;37.93;21.40;;;7.70;99.90;;;;;;5032878;28;20249;-68
2022/03/30 04:58:29;;;;;;;37.93;20.90;;;7.60;99.90;;;;;;5015913;28;20205;-67
2022/03/30 05:00:55;;;;;;;30.40;20.50;;;7.50;99.90;;;;;;5032360;28;20410;-68
2022/03/30 05:03:20;;;;;;;35.20;20.67;;;7.50;99.90;;;;;;5032786;28;21047;-68
2022/03/30 05:05:46;;;;;;;34.97;20.63;;;7.40;99.90;;;;;;5032182;28;20194;-67
2022/03/30 05:08:12;;;;;;;31.90;20.73;;;7.30;99.90;;;;;;5015246;28;20535;-68
2022/03/30 05:10:37;;;;;;;36.57;21.17;;;7.30;99.90;;;;;;5032728;28;20667;-67
2022/03/30 05:13:04;;;;;;;32.77;19.07;;;7.20;99.90;;;;;;5014789;28;20432;-68
2022/03/30 05:15:30;;;;;;;36.73;22.13;;;7.20;99.90;;;;;;5033332;28;20715;-67
2022/03/30 05:17:56;;;;;;;31.27;18.97;;;7.10;99.90;;;;;;5061262;28;20455;-68
2022/03/30 05:20:22;;;;;;;30.67;21.00;;;7.00;99.90;;;;;;5033389;28;20467;-67
2022/03/30 05:22:48;;;;;;;35.00;21.50;;;6.90;99.90;;;;;;5058506;28;20444;-66
2022/03/30 05:25:21;;;;;;;37.60;21.20;;;6.80;99.90;;;;;;5062819;28;20484;-68
2022/03/30 05:27:47;;;;;;;35.57;20.67;;;6.90;99.90;;;;;;5063424;28;20539;-67
2022/03/30 05:30:13;;;;;;;35.77;21.20;;;6.90;99.90;;;;;;5048974;28;20469;-67
2022/03/30 05:32:44;;;;;;;40.60;22.67;;;7.10;99.90;;;;;;5031722;28;20476;-68
2022/03/30 05:35:10;;;;;;;37.93;19.53;;;7.20;99.90;;;;;;5031233;28;20449;-67
2022/03/30 05:37:36;;;;;;;33.57;20.67;;;7.40;99.90;;;;;;5012981;28;20818;-68
2022/03/30 05:40:04;;;;;;;38.07;20.97;;;7.50;99.90;;;;;;5031000;28;20547;-68
2022/03/30 05:42:29;;;;;;;52.83;22.13;;;7.50;99.90;;;;;;5041625;28;20576;-68
2022/03/30 05:44:55;;;;;;;49.10;24.07;;;7.50;99.90;;;;;;5031617;28;20495;-67
2022/03/30 05:47:21;;;;;;;39.67;23.10;;;7.50;99.90;;;;;;5032541;28;20198;-68
2022/03/30 05:49:47;;;;;;;43.33;22.47;;;7.50;99.90;;;;;;5015383;28;20296;-68
2022/03/30 05:52:12;;;;;;;37.47;21.97;;;7.50;99.90;;;;;;5033856;28;20452;-68
2022/03/30 05:54:38;;;;;;;40.40;21.53;;;7.50;99.90;;;;;;5032131;28;20198;-68
2022/03/30 05:57:05;;;;;;;30.53;21.40;;;7.30;99.90;;;;;;5032399;28;20706;-68
2022/03/30 05:59:32;;;;;;;42.70;23.57;;;7.10;99.90;;;;;;5031867;28;20182;-68
2022/03/30 06:01:58;;;;;;;41.70;23.30;;;6.90;99.90;;;;;;5015013;28;20430;-68
2022/03/30 06:04:24;;;;;;;37.73;21.23;;;7.00;99.90;;;;;;5013870;28;20514;-68
2022/03/30 06:06:50;;;;;;;41.77;22.30;;;7.10;99.90;;;;;;5031870;28;20405;-67
2022/03/30 06:09:17;;;;;;;40.87;21.83;;;7.20;99.90;;;;;;5032180;28;20420;-68
2022/03/30 06:11:42;;;;;;;38.00;20.57;;;7.20;99.90;;;;;;5033032;28;20401;-68
2022/03/30 06:14:08;;;;;;;39.57;22.20;;;7.40;99.90;;;;;;5015893;28;20492;-67
2022/03/30 06:16:34;;;;;;;42.53;23.60;;;7.50;99.90;;;;;;5032390;28;20583;-68
2022/03/30 06:19:00;;;;;;;42.60;22.83;;;7.50;99.90;;;;;;4998311;28;20266;-68
2022/03/30 06:21:25;;;;;;;40.53;24.20;;;7.60;99.90;;;;;;5014286;28;21022;-68
2022/03/30 06:23:51;;;;;;;51.73;24.57;;;7.70;99.90;;;;;;5032949;28;20592;-68
2022/03/30 06:26:17;;;;;;;45.83;22.83;;;7.80;99.90;;;;;;5032870;28;20661;-67
2022/03/30 06:28:43;;;;;;;45.27;24.10;;;7.80;99.90;;;;;;5014568;28;20210;-68
2022/03/30 06:31:10;;;;;;;39.67;23.33;;;7.90;99.90;;;;;;5031687;28;20402;-68
2022/03/30 06:33:36;;;;;;;39.97;23.67;;;8.00;99.90;;;;;;5017533;28;20179;-69
2022/03/30 06:36:01;;;;;;;42.93;23.70;;;8.10;99.90;;;;;;5053112;28;20817;-67
2022/03/30 06:38:27;;;;;;;40.13;22.80;;;8.10;99.90;;;;;;5052052;28;20177;-69
2022/03/30 06:40:54;;;;;;;40.17;25.10;;;8.00;99.90;;;;;;5051950;28;20170;-66
2022/03/30 06:43:19;;;;;;;41.47;23.77;;;8.10;99.90;;;;;;5051807;28;20186;-68
2022/03/30 06:45:46;;;;;;;38.30;23.27;;;8.10;99.90;;;;;;5051626;28;21083;-67
2022/03/30 06:48:12;;;;;;;34.70;23.07;;;8.20;99.90;;;;;;5050509;28;20559;-68
2022/03/30 06:50:38;;;;;;;36.10;23.10;;;8.20;99.90;;;;;;5055231;28;20957;-68
2022/03/30 06:53:09;;;;;;;38.27;23.47;;;8.30;99.90;;;;;;5056220;28;20444;-67
2022/03/30 06:55:35;;;;;;;34.50;21.57;;;8.30;99.90;;;;;;5055787;28;20456;-68
2022/03/30 06:58:01;;;;;;;40.43;23.03;;;8.30;99.90;;;;;;5053806;28;20917;-68
2022/03/30 07:00:26;;;;;;;39.53;23.97;;;8.40;99.90;;;;;;5055165;28;20416;-68
2022/03/30 07:02:52;;;;;;;41.00;25.00;;;8.40;99.90;;;;;;5056435;28;20257;-68
2022/03/30 07:05:18;;;;;;;38.37;21.83;;;8.50;99.90;;;;;;5055008;28;20608;-67
2022/03/30 07:10:28;;;;;;;37.53;23.17;;;8.20;99.90;;;;;;5055088;28;20986;-68
2022/03/30 07:12:53;;;;;;;36.83;22.30;;;8.20;99.90;;;;;;5057227;28;20409;-68
2022/03/30 07:15:20;;;;;;;39.57;27.27;;;8.20;99.90;;;;;;5038572;28;20912;-69
2022/03/30 07:17:50;;;;;;;40.80;25.80;;;8.20;99.90;;;;;;5058654;28;20429;-69
2022/03/30 07:20:17;;;;;;;42.13;24.70;;;8.20;99.90;;;;;;5054252;28;20490;-67
2022/03/30 07:22:44;;;;;;;39.33;23.97;;;8.30;99.90;;;;;;5056348;28;20433;-68
2022/03/30 07:25:10;;;;;;;37.70;26.93;;;8.40;99.90;;;;;;5037173;28;20432;-69
2022/03/30 07:27:44;;;;;;;40.73;24.37;;;8.30;99.90;;;;;;5057867;28;20487;-68
2022/03/30 07:30:12;;;;;;;41.53;23.83;;;8.10;99.90;;;;;;5056037;28;20571;-68
2022/03/30 07:32:39;;;;;;;33.40;21.63;;;8.20;99.90;;;;;;5058416;28;20404;-68
2022/03/30 07:35:10;;;;;;;38.67;21.90;;;8.20;99.90;;;;;;5039028;28;20852;-68
2022/03/30 07:37:37;;;;;;;38.60;23.30;;;8.10;99.90;;;;;;5039628;28;20405;-68
2022/03/30 07:40:05;;;;;;;35.83;21.40;;;7.90;99.90;;;;;;5056501;28;20417;-69
2022/03/30 07:42:30;;;;;;;38.07;23.27;;;8.00;99.90;;;;;;5053668;28;20515;-70
2022/03/30 07:44:56;;;;;;;39.37;22.37;;;8.20;99.90;;;;;;5054525;28;20494;-69
2022/03/30 07:47:22;;;;;;;37.93;21.27;;;8.30;99.90;;;;;;5054525;28;20261;-69
2022/03/30 07:49:48;;;;;;;33.83;21.60;;;8.50;99.90;;;;;;5054380;28;20417;-68
2022/03/30 07:52:15;;;;;;;33.93;22.37;;;8.50;99.90;;;;;;5035323;28;20180;-69
2022/03/30 07:54:41;;;;;;;35.50;21.90;;;8.70;99.90;;;;;;5055288;28;20428;-68
2022/03/30 07:57:08;;;;;;;33.37;22.07;;;8.80;99.90;;;;;;5055292;28;20414;-68
2022/03/30 07:59:33;;;;;;;35.30;20.93;;;9.00;99.90;;;;;;5056420;28;20416;-68
2022/03/30 08:01:59;;;;;;;32.83;20.20;;;9.00;99.90;;;;;;5056310;28;20436;-69
2022/03/30 08:04:25;;;;;;;32.77;19.90;;;9.00;99.90;;;;;;5038524;28;20210;-69
2022/03/30 08:06:51;;;;;;;29.57;17.50;;;8.70;99.90;;;;;;5055876;28;20204;-69
2022/03/30 08:09:17;;;;;;;35.27;18.90;;;8.80;99.90;;;;;;5055292;28;20408;-69
2022/03/30 08:11:42;;;;;;;27.37;18.40;;;8.90;99.90;;;;;;5055515;28;20912;-68
2022/03/30 08:14:09;;;;;;;30.07;17.30;;;8.90;99.90;;;;;;5053308;28;20585;-69
2022/03/30 08:16:34;;;;;;;27.90;18.23;;;9.00;99.90;;;;;;5054747;28;20166;-69
2022/03/30 08:19:00;;;;;;;29.73;16.57;;;9.20;99.90;;;;;;5054939;28;20428;-68
2022/03/30 08:24:10;;;;;;;29.93;17.60;;;9.40;99.90;;;;;;5052887;28;20471;-70
2022/03/30 08:26:37;;;;;;;28.53;16.63;;;9.50;99.90;;;;;;5054583;28;20414;-69
2022/03/30 08:29:03;;;;;;;25.10;16.97;;;9.60;99.90;;;;;;5054289;28;20226;-68
2022/03/30 08:31:28;;;;;;;25.00;16.10;;;9.70;99.90;;;;;;5053863;28;20422;-68
2022/03/30 08:33:54;;;;;;;24.00;15.80;;;9.70;99.50;;;;;;5052125;28;20207;-68
2022/03/30 08:36:20;;;;;;;25.43;16.37;;;9.60;99.80;;;;;;5053126;28;20649;-68
2022/03/30 08:38:46;;;;;;;28.83;16.90;;;9.70;99.80;;;;;;5016287;28;20203;-69
2022/03/30 08:41:12;;;;;;;28.50;17.10;;;9.60;99.60;;;;;;5033984;28;20424;-68
2022/03/30 08:43:40;;;;;;;26.70;16.97;;;9.60;99.90;;;;;;5033221;28;20267;-69
2022/03/30 08:46:05;;;;;;;24.87;16.47;;;9.70;99.40;;;;;;5034179;28;20940;-68
2022/03/30 08:48:31;;;;;;;25.97;16.50;;;9.50;99.30;;;;;;5035956;28;20512;-69
2022/03/30 08:50:58;;;;;;;23.83;15.93;;;9.30;99.30;;;;;;5016698;28;20171;-68
2022/03/30 08:53:25;;;;;;;29.70;16.97;;;9.30;99.80;;;;;;5033740;28;20212;-68
2022/03/30 08:55:51;;;;;;;25.80;17.17;;;9.40;99.90;;;;;;5034088;28;20944;-67
2022/03/30 08:58:16;;;;;;;25.60;15.20;;;9.40;99.70;;;;;;5035155;28;20422;-68
2022/03/30 09:00:42;;;;;;;33.47;17.97;;;9.50;99.00;;;;;;5033741;28;20210;-67
2022/03/30 09:03:08;;;;;;;27.40;17.60;;;9.60;99.00;;;;;;5033725;28;20184;-68
2022/03/30 09:05:37;;;;;;;25.27;17.50;;;9.70;99.30;;;;;;5033728;28;20203;-67
2022/03/30 09:08:13;;;;;;;31.10;17.53;;;9.90;99.10;;;;;;5033841;28;20871;-67
2022/03/30 09:10:42;;;;;;;27.13;16.77;;;9.90;98.90;;;;;;5033094;28;20492;-68
2022/03/30 09:13:07;;;;;;;22.00;16.40;;;10.00;97.90;;;;;;5033271;28;20414;-69
2022/03/30 09:15:34;;;;;;;25.50;17.50;;;10.20;98.00;;;;;;5034658;28;20238;-68
2022/03/30 09:18:06;;;;;;;25.73;16.20;;;10.20;97.70;;;;;;5034158;28;20174;-68
2022/03/30 09:20:51;;;;;;;31.00;18.03;;;10.20;98.00;;;;;;5034333;28;20432;-69
2022/03/30 09:23:18;;;;;;;26.10;16.77;;;10.10;97.50;;;;;;5033425;28;20420;-68
2022/03/30 09:25:48;;;;;;;25.87;16.00;;;10.30;97.40;;;;;;5033800;28;20469;-68
2022/03/30 09:28:16;;;;;;;26.10;16.80;;;10.50;97.10;;;;;;5033776;28;20412;-67
2022/03/30 09:30:43;;;;;;;23.87;16.20;;;10.50;97.00;;;;;;5034430;28;20424;-68
2022/03/30 09:33:12;;;;;;;25.57;16.30;;;10.50;96.70;;;;;;5033670;28;20409;-68
2022/03/30 09:35:39;;;;;;;23.87;15.23;;;10.50;96.60;;;;;;5033149;28;20444;-67
2022/03/30 09:38:10;;;;;;;21.30;15.13;;;10.40;96.80;;;;;;5034110;28;20902;-67
2022/03/30 09:40:44;;;;;;;23.30;15.07;;;10.70;96.80;;;;;;5036916;28;20864;-67
2022/03/30 09:43:12;;;;;;;24.83;15.53;;;10.90;96.60;;;;;;5053479;28;20401;-66
2022/03/30 09:45:37;;;;;;;25.03;15.90;;;11.10;96.10;;;;;;5053408;28;20456;-69
2022/03/30 09:48:12;;;;;;;22.87;16.07;;;11.20;95.70;;;;;;5035440;28;20932;-68
2022/03/30 09:50:46;;;;;;;26.03;15.80;;;11.20;95.80;;;;;;5035300;28;20208;-70
2022/03/30 09:53:14;;;;;;;23.17;15.90;;;11.20;95.50;;;;;;5053755;28;20424;-68
2022/03/30 09:55:59;;;;;;;26.90;16.03;;;10.90;94.80;;;;;;5053676;28;20432;-68
2022/03/30 09:58:28;;;;;;;23.60;14.63;;;10.80;95.30;;;;;;5054178;28;20439;-67
2022/03/30 10:01:11;;;;;;;23.23;16.40;;;10.40;95.90;;;;;;5053831;28;20408;-68
2022/03/30 10:03:42;;;;;;;22.80;15.80;;;10.30;96.20;;;;;;5052810;28;20425;-68
2022/03/30 10:06:09;;;;;;;27.13;16.20;;;10.30;96.40;;;;;;5054136;28;20392;-67
2022/03/30 10:08:35;;;;;;;22.83;15.00;;;10.30;96.50;;;;;;5054767;28;20773;-68
2022/03/30 10:11:00;;;;;;;24.63;15.17;;;10.50;96.60;;;;;;5054230;28;20400;-69
2022/03/30 10:13:27;;;;;;;26.03;14.97;;;10.60;96.10;;;;;;5052947;28;20475;-68
2022/03/30 10:15:52;;;;;;;24.43;14.77;;;10.70;96.20;;;;;;5053481;22;20229;-70
2022/03/30 10:18:19;;;;;;;20.90;14.53;;;11.10;96.00;;;;;;5016883;28;20434;-71
2022/03/30 10:20:49;;;;;;;22.57;15.70;;;11.30;95.20;;;;;;5011521;28;20582;-70
2022/03/30 10:23:27;;;;;;;21.23;15.70;;;11.40;95.00;;;;;;5012495;28;20426;-71
2022/03/30 10:25:58;;;;;;;26.27;14.33;;;11.50;94.90;;;;;;5015371;28;20892;-71
2022/03/30 10:28:31;;;;;;;23.00;14.63;;;11.70;94.70;;;;;;5015755;28;20418;-72
2022/03/30 10:30:58;;;;;;;30.00;15.70;;;11.60;94.50;;;;;;5015454;28;20482;-71
2022/03/30 10:33:34;;;;;;;24.20;14.53;;;11.70;94.60;;;;;;5016256;28;20828;-70
2022/03/30 10:36:27;;;;;;;29.57;15.40;;;11.80;94.00;;;;;;5014813;28;20426;-72
2022/03/30 10:39:14;;;;;;;20.77;14.23;;;11.80;93.70;;;;;;5015659;28;20410;-71
2022/03/30 10:41:52;;;;;;;23.47;14.33;;;11.70;93.40;;;;;;5020661;28;20440;-71
2022/03/30 10:44:41;;;;;;;15.90;13.10;;;11.50;93.30;;;;;;5035191;28;20447;-71
2022/03/30 10:47:11;;;;;;;20.73;13.90;;;11.50;93.50;;;;;;5033334;28;20440;-71
2022/03/30 10:49:41;;;;;;;20.53;13.60;;;11.50;93.80;;;;;;5034802;28;20520;-71
2022/03/30 10:52:25;;;;;;;19.57;13.50;;;11.70;93.80;;;;;;5035188;28;20468;-71
2022/03/30 10:54:55;;;;;;;24.20;14.07;;;11.80;93.00;;;;;;5034712;28;20936;-71
2022/03/30 10:57:46;;;;;;;24.10;12.57;;;11.80;92.90;;;;;;5034945;28;20394;-71
2022/03/30 11:00:20;;;;;;;23.57;14.83;;;11.80;92.70;;;;;;5031081;28;20419;-71
2022/03/30 11:02:46;;;;;;;23.47;14.87;;;11.90;92.90;;;;;;5017456;28;21153;-71
2022/03/30 11:05:13;;;;;;;18.43;14.40;;;11.80;92.90;;;;;;4997706;28;20531;-70
2022/03/30 11:07:39;;;;;;;21.85;16.52;;;11.80;93.00;;;;;;5013880;28;20407;-71
2022/03/30 11:10:21;;;;;;;21.53;16.30;;;11.70;93.30;;;;;;5015274;28;20233;-72
2022/03/30 11:13:02;;;;;;;25.60;15.17;;;11.70;93.50;;;;;;5014898;28;20417;-71
2022/03/30 11:15:28;;;;;;;21.90;15.97;;;11.90;93.50;;;;;;4997894;28;20426;-71
2022/03/30 11:17:56;;;;;;;23.77;14.97;;;12.10;93.10;;;;;;5014532;28;20517;-71
2022/03/30 11:20:23;;;;;;;19.27;13.90;;;12.10;92.90;;;;;;5015461;28;20432;-71
2022/03/30 11:22:49;;;;;;;17.40;13.67;;;12.00;92.70;;;;;;5014490;28;20922;-70
2022/03/30 11:25:21;;;;;;;25.30;15.10;;;12.00;92.50;;;;;;5014728;28;20476;-71
2022/03/30 11:27:59;;;;;;;19.23;14.77;;;11.80;92.90;;;;;;5014615;28;20501;-71
2022/03/30 11:30:28;;;;;;;17.63;13.53;;;11.80;93.00;;;;;;5014916;28;20806;-70
2022/03/30 11:33:12;;;;;;;16.70;12.67;;;11.90;92.70;;;;;;5014223;28;20553;-70
2022/03/30 11:35:42;;;;;;;18.07;14.33;;;11.90;92.10;;;;;;5013083;28;20461;-70
2022/03/30 11:38:10;;;;;;;18.37;14.10;;;11.70;92.30;;;;;;5014180;28;20717;-70
2022/03/30 11:40:46;;;;;;;24.00;14.90;;;11.90;92.60;;;;;;5014804;28;20465;-71
2022/03/30 11:43:12;;;;;;;18.93;13.40;;;12.00;92.50;;;;;;5014294;28;20792;-71
2022/03/30 11:45:39;;;;;;;21.53;14.10;;;12.20;92.40;;;;;;5013901;28;20980;-71
2022/03/30 11:48:07;;;;;;;20.77;15.10;;;12.30;92.30;;;;;;5014064;28;20514;-71
2022/03/30 11:50:35;;;;;;;20.43;16.70;;;12.20;92.20;;;;;;5014129;28;20422;-71
2022/03/30 11:53:08;;;;;;;23.60;16.17;;;12.10;92.60;;;;;;5015144;28;20475;-71
2022/03/30 11:55:38;;;;;;;20.77;15.60;;;11.90;92.90;;;;;;5014660;28;20453;-71
2022/03/30 11:58:04;;;;;;;23.90;14.67;;;12.10;93.00;;;;;;4996568;28;20888;-71
2022/03/30 12:00:32;;;;;;;21.53;15.80;;;12.10;92.80;;;;;;5015201;28;20419;-71
2022/03/30 12:02:59;;;;;;;24.60;16.83;;;12.00;92.90;;;;;;5013922;28;20870;-71
2022/03/30 12:05:26;;;;;;;24.07;15.90;;;11.90;92.90;;;;;;5013847;28;20489;-71
2022/03/30 12:07:57;;;;;;;20.97;15.33;;;11.90;93.00;;;;;;5013573;28;20414;-71
2022/03/30 12:10:29;;;;;;;22.57;15.20;;;12.00;92.70;;;;;;5014453;28;20965;-71
2022/03/30 12:12:55;;;;;;;18.47;15.20;;;12.10;92.60;;;;;;5013629;28;20410;-71
2022/03/30 12:15:21;;;;;;;20.30;13.60;;;12.10;92.20;;;;;;5013258;28;20454;-71
2022/03/30 12:17:52;;;;;;;16.33;12.57;;;12.10;91.60;;;;;;5013561;28;20255;-71
2022/03/30 12:20:46;;;;;;;19.27;14.20;;;12.10;91.40;;;;;;5013953;28;20410;-71
2022/03/30 12:23:12;;;;;;;16.57;13.00;;;12.00;91.10;;;;;;4992171;28;20419;-71
2022/03/30 12:25:43;;;;;;;22.80;13.43;;;11.90;91.50;;;;;;5013829;28;20464;-71
2022/03/30 12:28:09;;;;;;;18.37;12.40;;;12.00;91.70;;;;;;5015903;28;20478;-72
2022/03/30 12:30:37;;;;;;;20.77;13.33;;;12.20;91.50;;;;;;5013442;28;20438;-71
2022/03/30 12:33:04;;;;;;;16.43;12.03;;;12.20;91.50;;;;;;5014568;28;20216;-71
2022/03/30 12:35:37;;;;;;;16.70;12.57;;;12.30;91.60;;;;;;5013114;28;20999;-71
2022/03/30 12:38:10;;;;;;;19.37;12.43;;;12.30;91.40;;;;;;5009683;28;20459;-71
2022/03/30 12:40:38;;;;;;;17.30;11.50;;;12.30;91.20;;;;;;5032791;28;20409;-71
2022/03/30 12:43:04;;;;;;;18.50;11.83;;;12.20;90.70;;;;;;5033038;28;20504;-71